sensor_id;sensor_type;location;lat;lon;timestamp;P1;durP1;ratioP1;P2;durP2;ratioP2
1204;SDS011;592;48.764;9.174;2023-04-25T04:57:24;8.00;;;3.73;;
1204;SDS011;592;48.764;9.174;2023-04-25T04:59:50;5.73;;;3.50;;
1204;SDS011;592;48.764;9.174;2023-04-25T05:02:18;5.30;;;3.00;;
1204;SDS011;592;48.764;9.174;2023-04-25T06:13:33;6.53;;;3.60;;
1204;SDS011;592;48.764;9.174;2023-04-25T08:40:11;12.90;;;4.80;;
1204;SDS011;592;48.764;9.174;2023-04-25T08:42:41;11.27;;;5.30;;
1204;SDS011;592;48.764;9.174;2023-04-25T14:34:21;10.13;;;7.40;;
1204;SDS011;592;48.764;9.174;2023-04-25T14:36:48;9.13;;;7.13;;
1204;SDS011;592;48.764;9.174;2023-04-25T15:25:52;11.57;;;7.30;;
1204;SDS011;592;48.764;9.174;2023-04-25T16:25:20;11.20;;;7.37;;
1204;SDS011;592;48.764;9.174;2023-04-25T16:27:47;13.37;;;7.53;;
1204;SDS011;592;48.764;9.174;2023-04-25T16:30:14;12.60;;;7.87;;
1204;SDS011;592;48.764;9.174;2023-04-25T16:32:41;11.93;;;7.00;;
1204;SDS011;592;48.764;9.174;2023-04-25T16:35:08;12.60;;;8.27;;
1204;SDS011;592;48.764;9.174;2023-04-25T16:37:35;10.50;;;6.80;;
1204;SDS011;592;48.764;9.174;2023-04-25T16:40:02;9.50;;;6.03;;
1204;SDS011;592;48.764;9.174;2023-04-25T16:42:34;13.17;;;7.20;;
1204;SDS011;592;48.764;9.174;2023-04-25T16:45:00;10.80;;;6.57;;
1204;SDS011;592;48.764;9.174;2023-04-25T16:47:28;12.40;;;7.20;;
1204;SDS011;592;48.764;9.174;2023-04-25T16:49:56;10.97;;;6.63;;
1204;SDS011;592;48.764;9.174;2023-04-25T16:52:24;13.17;;;6.80;;
1204;SDS011;592;48.764;9.174;2023-04-25T16:54:51;10.17;;;7.03;;
1204;SDS011;592;48.764;9.174;2023-04-25T16:57:18;9.23;;;6.23;;
1204;SDS011;592;48.764;9.174;2023-04-25T16:59:46;8.53;;;6.17;;
1204;SDS011;592;48.764;9.174;2023-04-25T17:02:13;10.20;;;6.90;;
1204;SDS011;592;48.764;9.174;2023-04-25T17:04:41;11.80;;;7.87;;
1204;SDS011;592;48.764;9.174;2023-04-25T17:07:07;10.27;;;6.87;;
1204;SDS011;592;48.764;9.174;2023-04-25T17:09:34;11.33;;;6.60;;
1204;SDS011;592;48.764;9.174;2023-04-25T17:12:01;13.33;;;8.00;;
1204;SDS011;592;48.764;9.174;2023-04-25T17:14:28;10.10;;;6.63;;
1204;SDS011;592;48.764;9.174;2023-04-25T17:16:58;12.13;;;7.03;;
1204;SDS011;592;48.764;9.174;2023-04-25T17:19:25;11.57;;;6.80;;
1204;SDS011;592;48.764;9.174;2023-04-25T17:22:06;11.03;;;6.57;;
1204;SDS011;592;48.764;9.174;2023-04-25T17:24:34;14.30;;;7.13;;
1204;SDS011;592;48.764;9.174;2023-04-25T17:27:06;10.10;;;6.80;;
1204;SDS011;592;48.764;9.174;2023-04-25T17:29:35;14.07;;;7.17;;
1204;SDS011;592;48.764;9.174;2023-04-25T17:32:03;12.10;;;7.70;;
1204;SDS011;592;48.764;9.174;2023-04-25T17:34:30;9.70;;;6.37;;
1204;SDS011;592;48.764;9.174;2023-04-25T17:36:57;12.83;;;7.13;;
1204;SDS011;592;48.764;9.174;2023-04-25T17:39:24;13.73;;;7.17;;
1204;SDS011;592;48.764;9.174;2023-04-25T17:41:50;11.40;;;6.50;;
1204;SDS011;592;48.764;9.174;2023-04-25T17:44:17;9.97;;;6.83;;
1204;SDS011;592;48.764;9.174;2023-04-25T17:46:44;11.07;;;7.00;;
1204;SDS011;592;48.764;9.174;2023-04-25T17:49:12;15.17;;;8.20;;
1204;SDS011;592;48.764;9.174;2023-04-25T17:51:39;11.77;;;7.50;;
1204;SDS011;592;48.764;9.174;2023-04-25T17:54:05;10.83;;;6.97;;
1204;SDS011;592;48.764;9.174;2023-04-25T17:56:32;11.97;;;8.10;;
1204;SDS011;592;48.764;9.174;2023-04-25T17:59:01;13.93;;;7.93;;
1204;SDS011;592;48.764;9.174;2023-04-25T18:01:28;14.07;;;7.67;;
1204;SDS011;592;48.764;9.174;2023-04-25T18:03:55;12.97;;;7.97;;
1204;SDS011;592;48.764;9.174;2023-04-25T18:06:23;12.20;;;7.73;;
1204;SDS011;592;48.764;9.174;2023-04-25T18:08:52;10.90;;;7.17;;
1204;SDS011;592;48.764;9.174;2023-04-25T18:11:21;9.00;;;6.03;;
1204;SDS011;592;48.764;9.174;2023-04-25T18:13:47;11.30;;;7.03;;
1204;SDS011;592;48.764;9.174;2023-04-25T18:16:14;12.17;;;8.23;;
1204;SDS011;592;48.764;9.174;2023-04-25T18:18:41;10.83;;;6.93;;
1204;SDS011;592;48.764;9.174;2023-04-25T18:21:10;12.20;;;6.97;;
1204;SDS011;592;48.764;9.174;2023-04-25T18:23:38;10.43;;;7.50;;
1204;SDS011;592;48.764;9.174;2023-04-25T18:26:05;13.20;;;7.90;;
1204;SDS011;592;48.764;9.174;2023-04-25T18:28:32;8.73;;;5.87;;
1204;SDS011;592;48.764;9.174;2023-04-25T18:30:59;10.60;;;6.40;;
1204;SDS011;592;48.764;9.174;2023-04-25T18:33:26;10.33;;;6.07;;
1204;SDS011;592;48.764;9.174;2023-04-25T18:35:53;12.33;;;6.50;;
1204;SDS011;592;48.764;9.174;2023-04-25T18:38:20;9.80;;;6.57;;
1204;SDS011;592;48.764;9.174;2023-04-25T18:40:48;11.33;;;6.87;;
1204;SDS011;592;48.764;9.174;2023-04-25T18:43:15;12.33;;;6.73;;
1204;SDS011;592;48.764;9.174;2023-04-25T18:45:42;10.67;;;6.33;;
1204;SDS011;592;48.764;9.174;2023-04-25T18:48:09;8.80;;;6.40;;
1204;SDS011;592;48.764;9.174;2023-04-25T18:50:36;11.70;;;6.83;;
1204;SDS011;592;48.764;9.174;2023-04-25T18:53:02;9.63;;;6.60;;
1204;SDS011;592;48.764;9.174;2023-04-25T18:55:29;10.70;;;6.03;;
1204;SDS011;592;48.764;9.174;2023-04-25T18:57:57;8.60;;;6.63;;
1204;SDS011;592;48.764;9.174;2023-04-25T19:00:24;10.37;;;6.17;;
1204;SDS011;592;48.764;9.174;2023-04-25T19:02:51;9.10;;;6.27;;
1204;SDS011;592;48.764;9.174;2023-04-25T19:05:19;8.83;;;6.23;;
1204;SDS011;592;48.764;9.174;2023-04-25T19:07:46;9.60;;;6.47;;
1204;SDS011;592;48.764;9.174;2023-04-25T19:10:13;11.10;;;7.33;;
1204;SDS011;592;48.764;9.174;2023-04-25T19:12:40;9.27;;;6.23;;
1204;SDS011;592;48.764;9.174;2023-04-25T19:15:09;13.27;;;7.40;;
1204;SDS011;592;48.764;9.174;2023-04-25T19:17:36;11.70;;;6.67;;
1204;SDS011;592;48.764;9.174;2023-04-25T19:20:03;11.20;;;7.20;;
1204;SDS011;592;48.764;9.174;2023-04-25T19:22:31;11.20;;;7.10;;
1204;SDS011;592;48.764;9.174;2023-04-25T19:24:58;11.80;;;6.87;;
1204;SDS011;592;48.764;9.174;2023-04-25T19:27:25;9.70;;;6.50;;
1204;SDS011;592;48.764;9.174;2023-04-25T19:29:52;11.13;;;6.20;;
1204;SDS011;592;48.764;9.174;2023-04-25T19:32:25;8.43;;;5.73;;
1204;SDS011;592;48.764;9.174;2023-04-25T19:34:52;9.50;;;6.40;;
1204;SDS011;592;48.764;9.174;2023-04-25T19:37:19;9.60;;;6.40;;
1204;SDS011;592;48.764;9.174;2023-04-25T19:39:46;10.47;;;6.43;;
1204;SDS011;592;48.764;9.174;2023-04-25T19:42:12;11.73;;;5.87;;
1204;SDS011;592;48.764;9.174;2023-04-25T19:44:39;8.23;;;5.80;;
1204;SDS011;592;48.764;9.174;2023-04-25T19:47:06;11.77;;;7.10;;
1204;SDS011;592;48.764;9.174;2023-04-25T19:49:36;10.30;;;6.47;;
1204;SDS011;592;48.764;9.174;2023-04-25T19:52:03;9.53;;;5.60;;
1204;SDS011;592;48.764;9.174;2023-04-25T19:54:31;10.00;;;5.70;;
1204;SDS011;592;48.764;9.174;2023-04-25T19:56:58;8.30;;;5.40;;
1204;SDS011;592;48.764;9.174;2023-04-25T19:59:27;8.80;;;5.60;;
1204;SDS011;592;48.764;9.174;2023-04-25T20:01:54;8.07;;;5.40;;
1204;SDS011;592;48.764;9.174;2023-04-25T20:04:21;9.07;;;5.70;;
1204;SDS011;592;48.764;9.174;2023-04-25T20:06:49;11.30;;;5.00;;
1204;SDS011;592;48.764;9.174;2023-04-25T20:09:17;7.60;;;5.03;;
1204;SDS011;592;48.764;9.174;2023-04-25T20:11:46;8.30;;;5.80;;
1204;SDS011;592;48.764;9.174;2023-04-25T20:14:13;9.10;;;5.43;;
1204;SDS011;592;48.764;9.174;2023-04-25T20:16:40;12.50;;;6.43;;
1204;SDS011;592;48.764;9.174;2023-04-25T20:19:07;11.33;;;6.67;;
1204;SDS011;592;48.764;9.174;2023-04-25T20:21:34;10.43;;;5.87;;
1204;SDS011;592;48.764;9.174;2023-04-25T20:24:02;12.07;;;5.90;;
1204;SDS011;592;48.764;9.174;2023-04-25T20:26:29;12.67;;;7.90;;
1204;SDS011;592;48.764;9.174;2023-04-25T20:28:58;9.80;;;6.60;;
1204;SDS011;592;48.764;9.174;2023-04-25T20:31:25;11.33;;;7.20;;
1204;SDS011;592;48.764;9.174;2023-04-25T20:33:52;12.43;;;7.20;;
1204;SDS011;592;48.764;9.174;2023-04-25T20:36:19;10.93;;;6.47;;
1204;SDS011;592;48.764;9.174;2023-04-25T20:38:45;12.13;;;6.37;;
1204;SDS011;592;48.764;9.174;2023-04-25T20:41:13;9.67;;;5.93;;
1204;SDS011;592;48.764;9.174;2023-04-25T20:43:40;10.43;;;5.73;;
1204;SDS011;592;48.764;9.174;2023-04-25T20:46:07;10.63;;;5.77;;
1204;SDS011;592;48.764;9.174;2023-04-25T20:48:34;11.07;;;6.43;;
1204;SDS011;592;48.764;9.174;2023-04-25T20:51:01;11.90;;;5.80;;
1204;SDS011;592;48.764;9.174;2023-04-25T20:53:28;11.40;;;6.30;;
1204;SDS011;592;48.764;9.174;2023-04-25T20:55:54;10.50;;;6.70;;
1204;SDS011;592;48.764;9.174;2023-04-25T20:58:22;10.40;;;6.10;;
1204;SDS011;592;48.764;9.174;2023-04-25T21:00:50;12.13;;;6.50;;
1204;SDS011;592;48.764;9.174;2023-04-25T21:03:17;10.50;;;6.10;;
1204;SDS011;592;48.764;9.174;2023-04-25T21:05:44;9.70;;;6.73;;
1204;SDS011;592;48.764;9.174;2023-04-25T21:08:11;9.30;;;6.90;;
1204;SDS011;592;48.764;9.174;2023-04-25T21:10:38;11.10;;;6.47;;
1204;SDS011;592;48.764;9.174;2023-04-25T21:13:06;9.47;;;6.20;;
1204;SDS011;592;48.764;9.174;2023-04-25T21:15:34;8.10;;;6.00;;
1204;SDS011;592;48.764;9.174;2023-04-25T21:18:00;11.73;;;7.17;;
1204;SDS011;592;48.764;9.174;2023-04-25T21:20:27;10.20;;;7.23;;
1204;SDS011;592;48.764;9.174;2023-04-25T21:22:54;10.30;;;6.20;;
1204;SDS011;592;48.764;9.174;2023-04-25T21:25:22;8.77;;;6.60;;
1204;SDS011;592;48.764;9.174;2023-04-25T21:27:54;13.90;;;6.77;;
1204;SDS011;592;48.764;9.174;2023-04-25T21:30:22;12.43;;;6.50;;
1204;SDS011;592;48.764;9.174;2023-04-25T21:32:51;13.90;;;7.23;;
1204;SDS011;592;48.764;9.174;2023-04-25T21:35:20;13.53;;;6.33;;
1204;SDS011;592;48.764;9.174;2023-04-25T21:37:47;10.00;;;6.00;;
1204;SDS011;592;48.764;9.174;2023-04-25T21:40:14;12.90;;;6.93;;
1204;SDS011;592;48.764;9.174;2023-04-25T21:42:42;12.90;;;6.87;;
1204;SDS011;592;48.764;9.174;2023-04-25T21:45:14;15.73;;;6.40;;
1204;SDS011;592;48.764;9.174;2023-04-25T21:47:40;10.30;;;6.27;;
1204;SDS011;592;48.764;9.174;2023-04-25T21:50:11;10.47;;;6.60;;
1204;SDS011;592;48.764;9.174;2023-04-25T21:52:38;10.37;;;6.30;;
1204;SDS011;592;48.764;9.174;2023-04-25T21:55:05;10.47;;;6.67;;
1204;SDS011;592;48.764;9.174;2023-04-25T21:57:33;10.63;;;6.70;;
1204;SDS011;592;48.764;9.174;2023-04-25T22:00:00;9.40;;;6.27;;
1204;SDS011;592;48.764;9.174;2023-04-25T22:02:27;9.60;;;6.50;;
1204;SDS011;592;48.764;9.174;2023-04-25T22:04:54;10.10;;;6.60;;
1204;SDS011;592;48.764;9.174;2023-04-25T22:07:23;10.03;;;6.07;;
1204;SDS011;592;48.764;9.174;2023-04-25T22:09:49;11.80;;;6.37;;
1204;SDS011;592;48.764;9.174;2023-04-25T22:12:16;13.20;;;7.33;;
1204;SDS011;592;48.764;9.174;2023-04-25T22:14:43;10.47;;;6.43;;
1204;SDS011;592;48.764;9.174;2023-04-25T22:17:10;9.67;;;7.10;;
1204;SDS011;592;48.764;9.174;2023-04-25T22:19:37;9.57;;;6.60;;
1204;SDS011;592;48.764;9.174;2023-04-25T22:22:04;12.07;;;6.43;;
1204;SDS011;592;48.764;9.174;2023-04-25T22:24:32;10.10;;;6.50;;
1204;SDS011;592;48.764;9.174;2023-04-25T22:26:59;11.80;;;6.80;;
1204;SDS011;592;48.764;9.174;2023-04-25T22:29:26;13.93;;;6.40;;
1204;SDS011;592;48.764;9.174;2023-04-25T22:31:53;11.40;;;6.90;;
1204;SDS011;592;48.764;9.174;2023-04-25T22:34:20;12.13;;;7.17;;
1204;SDS011;592;48.764;9.174;2023-04-25T22:36:47;10.50;;;6.50;;
1204;SDS011;592;48.764;9.174;2023-04-25T22:39:14;15.23;;;7.23;;
1204;SDS011;592;48.764;9.174;2023-04-25T22:41:42;12.73;;;7.20;;
1204;SDS011;592;48.764;9.174;2023-04-25T22:44:09;10.40;;;6.30;;
1204;SDS011;592;48.764;9.174;2023-04-25T22:46:35;12.70;;;6.57;;
1204;SDS011;592;48.764;9.174;2023-04-25T22:49:02;10.20;;;6.63;;
1204;SDS011;592;48.764;9.174;2023-04-25T22:51:29;10.30;;;6.73;;
1204;SDS011;592;48.764;9.174;2023-04-25T22:53:57;12.37;;;6.43;;
1204;SDS011;592;48.764;9.174;2023-04-25T22:56:24;14.33;;;7.20;;
1204;SDS011;592;48.764;9.174;2023-04-25T22:58:53;10.60;;;6.30;;
1204;SDS011;592;48.764;9.174;2023-04-25T23:01:19;10.20;;;6.10;;
1204;SDS011;592;48.764;9.174;2023-04-25T23:03:46;12.73;;;6.33;;
1204;SDS011;592;48.764;9.174;2023-04-25T23:06:13;10.97;;;6.00;;
1204;SDS011;592;48.764;9.174;2023-04-25T23:08:40;12.53;;;6.70;;
1204;SDS011;592;48.764;9.174;2023-04-25T23:11:07;10.90;;;6.47;;
1204;SDS011;592;48.764;9.174;2023-04-25T23:13:34;13.53;;;6.50;;
1204;SDS011;592;48.764;9.174;2023-04-25T23:16:05;10.03;;;6.30;;
1204;SDS011;592;48.764;9.174;2023-04-25T23:18:33;10.70;;;6.57;;
1204;SDS011;592;48.764;9.174;2023-04-25T23:21:00;8.97;;;6.00;;
1204;SDS011;592;48.764;9.174;2023-04-25T23:23:28;11.13;;;5.70;;
1204;SDS011;592;48.764;9.174;2023-04-25T23:25:55;10.97;;;5.67;;
1204;SDS011;592;48.764;9.174;2023-04-25T23:28:22;10.23;;;5.73;;
1204;SDS011;592;48.764;9.174;2023-04-25T23:30:49;10.00;;;5.90;;
1204;SDS011;592;48.764;9.174;2023-04-25T23:33:17;14.77;;;6.00;;
1204;SDS011;592;48.764;9.174;2023-04-25T23:35:44;13.70;;;6.27;;
1204;SDS011;592;48.764;9.174;2023-04-25T23:38:11;10.30;;;6.57;;
1204;SDS011;592;48.764;9.174;2023-04-25T23:40:38;12.80;;;7.27;;
1204;SDS011;592;48.764;9.174;2023-04-25T23:43:05;10.17;;;6.00;;
1204;SDS011;592;48.764;9.174;2023-04-25T23:45:32;14.93;;;6.27;;
1204;SDS011;592;48.764;9.174;2023-04-25T23:47:59;12.37;;;6.40;;
1204;SDS011;592;48.764;9.174;2023-04-25T23:50:28;8.93;;;5.53;;
1204;SDS011;592;48.764;9.174;2023-04-25T23:52:54;9.00;;;6.30;;
1204;SDS011;592;48.764;9.174;2023-04-25T23:55:21;11.03;;;7.07;;
1204;SDS011;592;48.764;9.174;2023-04-25T23:57:48;11.37;;;6.20;;
